createdAt,value
2022-12-25T00:01:10.122Z,70.24
2022-12-25T00:03:37.751Z,70.54
2022-12-25T00:06:05.605Z,70.55
2022-12-25T00:08:33.126Z,70.75
2022-12-25T00:11:06.105Z,70.80
2022-12-25T00:13:33.292Z,70.78
2022-12-25T00:16:00.085Z,70.84
2022-12-25T00:18:26.904Z,70.70
2022-12-25T00:21:06.340Z,70.54
2022-12-25T00:23:34.758Z,70.69
2022-12-25T00:26:06.106Z,70.15
2022-12-25T00:28:32.998Z,70.16
2022-12-25T00:30:59.706Z,69.79
2022-12-25T00:33:26.440Z,70.08
2022-12-25T00:36:00.765Z,70.02
2022-12-25T00:38:28.096Z,70.17
2022-12-25T00:40:55.309Z,70.48
2022-12-25T00:43:22.218Z,70.11
2022-12-25T00:46:00.152Z,69.82
2022-12-25T00:48:28.149Z,69.65
2022-12-25T00:51:00.942Z,69.44
2022-12-25T00:53:28.720Z,69.41
2022-12-25T00:55:57.600Z,69.35
2022-12-25T00:58:26.020Z,69.33
2022-12-25T01:00:52.937Z,69.45
2022-12-25T01:03:19.794Z,69.32
2022-12-25T01:06:04.963Z,69.33
2022-12-25T01:08:34.684Z,69.73
2022-12-25T01:11:04.798Z,69.63
2022-12-25T01:13:34.884Z,69.67
2022-12-25T01:16:11.773Z,69.28
2022-12-25T01:18:38.961Z,69.37
2022-12-25T01:21:10.879Z,69.28
2022-12-25T01:23:38.068Z,69.52
2022-12-25T01:26:09.657Z,69.46
2022-12-25T01:28:36.708Z,69.89
2022-12-25T01:31:04.628Z,69.61
2022-12-25T01:33:31.711Z,69.85
2022-12-25T01:35:58.752Z,70.08
2022-12-25T01:38:25.787Z,69.98
2022-12-25T01:40:52.688Z,69.76
2022-12-25T01:43:31.165Z,69.82
2022-12-25T01:45:58.863Z,69.63
2022-12-25T01:48:30.780Z,69.32
2022-12-25T01:51:02.037Z,69.50
2022-12-25T01:53:29.352Z,70.01
2022-12-25T01:56:06.846Z,69.91
2022-12-25T01:58:35.156Z,69.86
2022-12-25T02:01:06.178Z,69.84
2022-12-25T02:03:33.033Z,69.65
2022-12-25T02:06:00.822Z,70.12
2022-12-25T02:08:27.692Z,69.94
2022-12-25T02:10:54.417Z,70.00
2022-12-25T02:13:21.163Z,70.29
2022-12-25T02:16:09.524Z,70.29
2022-12-25T02:18:48.251Z,70.31
2022-12-25T02:21:38.177Z,70.42
2022-12-25T02:24:23.323Z,70.14
2022-12-25T02:27:10.293Z,69.85
2022-12-25T02:29:42.679Z,69.89
2022-12-25T02:32:26.544Z,69.82
2022-12-25T02:35:05.602Z,69.98
2022-12-25T02:37:57.053Z,69.92
2022-12-25T02:40:45.449Z,69.76
2022-12-25T02:43:39.525Z,70.25
2022-12-25T02:46:27.944Z,70.75
2022-12-25T02:49:20.172Z,70.40
2022-12-25T02:52:13.027Z,70.21
2022-12-25T02:55:04.321Z,70.20
2022-12-25T02:57:56.380Z,70.21
2022-12-25T03:00:41.765Z,70.10
2022-12-25T03:03:30.802Z,69.94
2022-12-25T03:06:20.259Z,69.85
2022-12-25T03:08:53.692Z,69.97
2022-12-25T03:11:32.991Z,70.20
2022-12-25T03:14:24.019Z,69.88
2022-12-25T03:16:54.161Z,69.65
2022-12-25T03:20:02.585Z,69.84
2022-12-25T03:22:51.025Z,69.81
2022-12-25T03:25:37.840Z,69.71
2022-12-25T03:28:05.778Z,69.57
2022-12-25T03:31:13.144Z,69.89
2022-12-25T03:34:20.867Z,69.82
2022-12-25T03:37:14.491Z,69.83
2022-12-25T03:39:53.405Z,69.99
2022-12-25T03:42:46.234Z,70.47
2022-12-25T03:45:36.268Z,70.40
2022-12-25T03:48:27.929Z,70.13
2022-12-25T03:51:21.544Z,70.09
2022-12-25T03:54:13.061Z,70.30
2022-12-25T03:56:58.936Z,70.29
2022-12-25T03:59:44.593Z,70.54
2022-12-25T04:02:30.215Z,70.50
2022-12-25T04:05:15.566Z,70.55
2022-12-25T04:08:01.017Z,70.65
2022-12-25T04:10:46.396Z,70.77
2022-12-25T04:13:31.819Z,70.67
2022-12-25T04:16:17.149Z,70.64
2022-12-25T04:19:02.599Z,70.75
2022-12-25T04:21:48.213Z,70.71
2022-12-25T04:24:33.503Z,70.52
2022-12-25T04:27:19.046Z,70.44
2022-12-25T04:30:04.316Z,70.34
2022-12-25T04:32:50.313Z,70.62
2022-12-25T04:35:35.767Z,70.44
2022-12-25T04:38:02.418Z,70.54
2022-12-25T04:40:29.081Z,70.46
2022-12-25T04:42:55.627Z,70.65
2022-12-25T04:45:22.376Z,70.57
2022-12-25T04:47:48.978Z,70.64
2022-12-25T04:50:15.769Z,70.81
2022-12-25T04:52:42.849Z,70.67
2022-12-25T04:55:10.758Z,70.75
2022-12-25T04:57:38.152Z,70.16
2022-12-25T05:00:06.338Z,70.50
2022-12-25T05:02:33.480Z,70.72
2022-12-25T05:05:00.350Z,70.83
2022-12-25T05:07:26.981Z,70.73
2022-12-25T05:09:53.716Z,70.75
2022-12-25T05:12:20.257Z,71.21
2022-12-25T05:14:47.002Z,71.12
2022-12-25T05:17:13.572Z,71.15
2022-12-25T05:19:40.263Z,71.06
2022-12-25T05:22:06.835Z,70.83
2022-12-25T05:24:33.685Z,71.06
2022-12-25T05:27:00.431Z,70.91
2022-12-25T05:29:27.007Z,71.06
2022-12-25T05:31:53.716Z,71.04
2022-12-25T05:34:20.266Z,71.08
2022-12-25T05:36:46.921Z,71.37
2022-12-25T05:39:13.785Z,71.69
2022-12-25T05:41:40.807Z,71.98
2022-12-25T05:44:07.518Z,71.75
2022-12-25T05:46:34.154Z,71.85
2022-12-25T05:49:00.885Z,71.54
2022-12-25T05:51:27.601Z,71.40
2022-12-25T05:53:54.243Z,71.61
2022-12-25T05:56:20.917Z,71.60
2022-12-25T05:58:47.685Z,71.29
2022-12-25T06:01:20.962Z,71.47
2022-12-25T06:03:48.166Z,71.58
2022-12-25T06:06:15.061Z,71.50
2022-12-25T06:08:42.001Z,71.42
2022-12-25T06:11:14.968Z,71.02
2022-12-25T06:13:42.011Z,71.30
2022-12-25T06:16:11.708Z,71.77
2022-12-25T06:18:41.304Z,71.49
2022-12-25T06:21:09.815Z,71.57
2022-12-25T06:23:38.256Z,71.12
2022-12-25T06:26:11.367Z,71.15
2022-12-25T06:28:38.146Z,71.30
2022-12-25T06:31:09.646Z,71.05
2022-12-25T06:33:37.473Z,70.89
2022-12-25T06:36:22.054Z,71.34
2022-12-25T06:38:49.215Z,71.59
2022-12-25T06:41:18.394Z,71.57
2022-12-25T06:43:49.980Z,71.58
2022-12-25T06:46:17.637Z,71.62
2022-12-25T06:48:50.368Z,71.45
2022-12-25T06:51:17.946Z,71.66
2022-12-25T06:53:44.693Z,71.61
2022-12-25T06:56:15.769Z,71.56
2022-12-25T06:58:48.495Z,71.75
2022-12-25T07:01:20.729Z,72.23
2022-12-25T07:03:50.633Z,71.99
2022-12-25T07:06:17.447Z,71.87
2022-12-25T07:08:44.180Z,72.17
2022-12-25T07:11:10.876Z,72.15
2022-12-25T07:13:37.764Z,72.17
2022-12-25T07:16:05.904Z,72.31
2022-12-25T07:18:32.717Z,72.14
2022-12-25T07:21:05.095Z,72.12
2022-12-25T07:23:31.815Z,72.01
2022-12-25T07:25:59.595Z,72.01
2022-12-25T07:28:27.574Z,72.30
2022-12-25T07:30:54.248Z,72.36
2022-12-25T07:33:21.053Z,72.29
2022-12-25T07:35:48.023Z,72.34
2022-12-25T07:38:14.672Z,72.17
2022-12-25T07:40:41.293Z,72.22
2022-12-25T07:43:07.830Z,72.35
2022-12-25T07:45:34.563Z,72.13
2022-12-25T07:48:05.233Z,72.15
2022-12-25T07:50:34.137Z,72.07
2022-12-25T07:53:00.790Z,72.00
2022-12-25T07:55:27.316Z,72.24
2022-12-25T07:57:55.152Z,72.59
2022-12-25T08:00:22.215Z,72.66
2022-12-25T08:02:50.264Z,72.44
2022-12-25T08:05:17.277Z,72.45
2022-12-25T08:07:44.027Z,72.38
2022-12-25T08:10:11.203Z,72.50
2022-12-25T08:12:37.923Z,72.07
2022-12-25T08:15:05.242Z,72.09
2022-12-25T08:17:34.982Z,72.13
2022-12-25T08:20:01.644Z,72.07
2022-12-25T08:22:28.250Z,72.06
2022-12-25T08:24:54.916Z,72.11
2022-12-25T08:27:21.507Z,72.31
2022-12-25T08:29:48.178Z,72.19
2022-12-25T08:32:14.789Z,72.18
2022-12-25T08:34:41.379Z,72.20
2022-12-25T08:37:08.112Z,72.11
2022-12-25T08:39:34.780Z,72.08
2022-12-25T08:42:01.671Z,72.17
2022-12-25T08:44:28.514Z,72.11
2022-12-25T08:46:55.276Z,72.00
2022-12-25T08:49:22.094Z,72.06
2022-12-25T08:51:49.042Z,72.00
2022-12-25T08:54:15.696Z,72.21
2022-12-25T08:56:42.419Z,72.06
2022-12-25T08:59:09.161Z,72.14
2022-12-25T09:01:36.116Z,72.17
2022-12-25T09:04:03.105Z,72.10
2022-12-25T09:06:29.908Z,72.13
2022-12-25T09:08:56.601Z,72.05
2022-12-25T09:11:24.227Z,72.02
2022-12-25T09:13:50.931Z,72.08
2022-12-25T09:16:20.397Z,72.04
2022-12-25T09:18:47.967Z,72.17
2022-12-25T09:21:16.065Z,72.19
2022-12-25T09:23:42.923Z,72.21
2022-12-25T09:26:14.156Z,72.47
2022-12-25T09:28:46.633Z,72.54
2022-12-25T09:31:17.282Z,72.47
2022-12-25T09:33:44.062Z,72.50
2022-12-25T09:36:11.162Z,72.39
2022-12-25T09:38:38.124Z,72.74
2022-12-25T09:41:26.626Z,72.40
2022-12-25T09:44:00.850Z,72.38
2022-12-25T09:46:36.959Z,72.27
2022-12-25T09:49:17.034Z,72.25
2022-12-25T09:51:45.982Z,72.02
2022-12-25T09:54:22.648Z,71.81
2022-12-25T09:56:49.516Z,71.58
2022-12-25T09:59:24.508Z,71.42
2022-12-25T10:02:11.789Z,71.34
2022-12-25T10:05:20.809Z,71.29
2022-12-25T10:07:47.480Z,70.90
2022-12-25T10:10:20.108Z,70.80
2022-12-25T10:13:14.445Z,71.03
2022-12-25T10:15:45.822Z,70.94
2022-12-25T10:18:41.029Z,71.41
2022-12-25T10:21:13.392Z,72.15
2022-12-25T10:23:52.995Z,71.82
2022-12-25T10:26:25.387Z,71.00
2022-12-25T10:29:01.403Z,70.79
2022-12-25T10:31:30.565Z,69.93
2022-12-25T10:33:58.259Z,70.56
2022-12-25T10:36:28.272Z,69.82
2022-12-25T10:38:56.064Z,69.69
2022-12-25T10:41:22.768Z,69.57
2022-12-25T10:43:52.945Z,69.95
2022-12-25T10:46:21.124Z,69.66
2022-12-25T10:49:02.955Z,69.63
2022-12-25T10:51:34.027Z,69.58
2022-12-25T10:54:19.373Z,69.39
2022-12-25T10:57:02.884Z,69.46
2022-12-25T10:59:35.017Z,69.60
2022-12-25T11:02:13.938Z,69.32
2022-12-25T11:04:41.086Z,69.89
2022-12-25T11:07:20.327Z,69.50
2022-12-25T11:09:54.626Z,69.27
2022-12-25T11:12:31.830Z,69.09
2022-12-25T11:15:06.515Z,69.15
2022-12-25T11:17:33.231Z,69.24
2022-12-25T11:20:01.356Z,69.01
2022-12-25T11:22:29.370Z,68.65
2022-12-25T11:24:56.163Z,68.63
2022-12-25T11:27:26.651Z,68.22
2022-12-25T11:30:05.042Z,68.37
2022-12-25T11:32:39.640Z,68.67
2022-12-25T11:35:13.220Z,68.44
2022-12-25T11:37:42.892Z,68.85
2022-12-25T11:40:16.440Z,68.40
2022-12-25T11:42:55.733Z,68.42
2022-12-25T11:45:35.213Z,68.47
2022-12-25T11:48:13.863Z,68.67
2022-12-25T11:50:42.892Z,68.88
2022-12-25T11:53:21.647Z,68.46
2022-12-25T11:55:57.400Z,68.18
2022-12-25T11:58:33.187Z,67.98
2022-12-25T12:01:05.121Z,68.64
2022-12-25T12:03:37.563Z,67.89
2022-12-25T12:06:07.403Z,68.13
2022-12-25T12:08:36.197Z,68.21
2022-12-25T12:11:16.316Z,68.06
2022-12-25T12:14:01.711Z,68.08
2022-12-25T12:16:29.309Z,68.07
2022-12-25T12:18:56.111Z,68.88
2022-12-25T12:21:26.144Z,68.80
2022-12-25T12:24:05.009Z,68.41
2022-12-25T12:26:38.022Z,68.64
2022-12-25T12:29:07.830Z,67.81
2022-12-25T12:31:48.824Z,67.41
2022-12-25T12:34:27.060Z,67.23
2022-12-25T12:37:02.200Z,67.02
2022-12-25T12:39:35.642Z,66.96
2022-12-25T12:42:10.972Z,67.41
2022-12-25T12:44:37.712Z,67.25
2022-12-25T12:47:04.505Z,67.12
2022-12-25T12:49:33.746Z,67.11
2022-12-25T12:52:25.420Z,66.95
2022-12-25T12:55:05.264Z,67.01
2022-12-25T12:57:39.313Z,66.84
2022-12-25T13:00:20.058Z,67.05
2022-12-25T13:02:55.832Z,66.74
2022-12-25T13:05:54.277Z,66.92
2022-12-25T13:08:33.437Z,67.07
2022-12-25T13:11:10.967Z,66.83
2022-12-25T13:13:41.906Z,67.09
2022-12-25T13:16:34.754Z,66.73
2022-12-25T13:19:07.528Z,67.07
2022-12-25T13:21:35.369Z,67.04
2022-12-25T13:24:17.920Z,67.47
2022-12-25T13:26:44.626Z,67.40
2022-12-25T13:29:33.184Z,66.97
2022-12-25T13:32:01.991Z,67.59
2022-12-25T13:34:32.660Z,67.98
2022-12-25T13:37:06.483Z,67.68
2022-12-25T13:39:35.162Z,67.61
2022-12-25T13:42:05.510Z,66.97
2022-12-25T13:45:00.716Z,66.70
2022-12-25T13:47:43.268Z,66.58
2022-12-25T13:50:24.217Z,66.95
2022-12-25T13:52:52.390Z,66.64
2022-12-25T13:55:25.797Z,66.95
2022-12-25T13:57:59.300Z,66.55
2022-12-25T14:00:33.651Z,66.78
2022-12-25T14:03:00.549Z,66.88
2022-12-25T14:05:37.936Z,67.28
2022-12-25T14:08:25.281Z,67.96
2022-12-25T14:10:53.145Z,67.35
2022-12-25T14:13:23.561Z,67.46
2022-12-25T14:15:53.680Z,67.35
2022-12-25T14:18:23.051Z,67.42
2022-12-25T14:20:55.472Z,67.65
2022-12-25T14:23:22.436Z,68.43
2022-12-25T14:25:49.200Z,67.64
2022-12-25T14:28:27.119Z,67.43
2022-12-25T14:30:54.688Z,67.81
2022-12-25T14:33:24.212Z,67.77
2022-12-25T14:35:51.619Z,68.47
2022-12-25T14:38:26.254Z,68.34
2022-12-25T14:41:24.196Z,67.49
2022-12-25T14:43:54.437Z,68.22
2022-12-25T14:46:26.848Z,68.02
2022-12-25T14:49:05.679Z,67.60
2022-12-25T14:51:33.856Z,67.34
2022-12-25T14:54:04.294Z,67.20
2022-12-25T14:56:38.261Z,67.78
2022-12-25T14:59:07.781Z,67.82
2022-12-25T15:01:38.603Z,67.51
2022-12-25T15:04:11.158Z,67.60
2022-12-25T15:06:52.916Z,67.25
2022-12-25T15:09:20.063Z,67.22
2022-12-25T15:11:51.751Z,67.29
2022-12-25T15:14:18.985Z,67.42
2022-12-25T15:16:48.727Z,67.30
2022-12-25T15:19:25.269Z,67.22
2022-12-25T15:21:53.266Z,67.56
2022-12-25T15:24:19.924Z,67.73
2022-12-25T15:26:46.721Z,67.69
2022-12-25T15:29:13.461Z,67.99
2022-12-25T15:31:41.768Z,67.74
2022-12-25T15:34:20.966Z,68.14
2022-12-25T15:36:48.575Z,68.01
2022-12-25T15:39:15.333Z,67.98
2022-12-25T15:42:00.776Z,68.04
2022-12-25T15:44:27.449Z,68.18
2022-12-25T15:46:54.775Z,68.14
2022-12-25T15:49:21.512Z,68.00
2022-12-25T15:51:48.413Z,68.40
2022-12-25T15:54:15.116Z,68.35
2022-12-25T15:56:50.869Z,68.51
2022-12-25T15:59:20.035Z,68.74
2022-12-25T16:01:55.144Z,68.66
2022-12-25T16:04:22.926Z,68.84
2022-12-25T16:06:50.379Z,69.23
2022-12-25T16:09:18.680Z,69.04
2022-12-25T16:11:45.797Z,69.10
2022-12-25T16:14:12.902Z,69.35
2022-12-25T16:16:40.156Z,68.90
2022-12-25T16:19:07.758Z,69.14
2022-12-25T16:21:40.575Z,69.37
2022-12-25T16:24:07.564Z,69.02
2022-12-25T16:26:34.645Z,69.12
2022-12-25T16:29:06.676Z,69.58
2022-12-25T16:31:34.308Z,69.40
2022-12-25T16:34:01.820Z,69.07
2022-12-25T16:36:28.576Z,69.20
2022-12-25T16:38:55.478Z,69.12
2022-12-25T16:41:22.763Z,68.94
2022-12-25T16:43:49.749Z,69.61
2022-12-25T16:46:19.369Z,69.27
2022-12-25T16:48:46.443Z,69.54
2022-12-25T16:51:19.307Z,69.18
2022-12-25T16:53:46.672Z,69.36
2022-12-25T16:56:16.587Z,69.49
2022-12-25T16:58:47.499Z,69.19
2022-12-25T17:01:16.774Z,69.37
2022-12-25T17:03:44.100Z,69.81
2022-12-25T17:06:15.884Z,69.72
2022-12-25T17:08:43.748Z,69.55
2022-12-25T17:11:10.683Z,69.98
2022-12-25T17:13:37.556Z,69.62
2022-12-25T17:16:25.597Z,69.85
2022-12-25T17:18:57.583Z,69.75
2022-12-25T17:21:25.157Z,69.84
2022-12-25T17:23:54.280Z,70.01
2022-12-25T17:26:24.918Z,70.01
2022-12-25T17:28:51.756Z,69.88
2022-12-25T17:31:19.096Z,70.02
2022-12-25T17:33:45.958Z,69.98
2022-12-25T17:36:15.626Z,70.43
2022-12-25T17:38:42.962Z,70.23
2022-12-25T17:41:12.342Z,70.72
2022-12-25T17:43:45.710Z,69.95
2022-12-25T17:46:18.025Z,70.22
2022-12-25T17:48:45.618Z,70.38
2022-12-25T17:51:16.212Z,70.45
2022-12-25T17:53:45.331Z,70.64
2022-12-25T17:56:13.038Z,70.47
2022-12-25T17:58:40.080Z,70.49
2022-12-25T18:01:09.968Z,70.39
2022-12-25T18:03:36.917Z,70.52
2022-12-25T18:06:07.702Z,70.45
2022-12-25T18:08:39.259Z,70.52
2022-12-25T18:11:09.359Z,70.46
2022-12-25T18:13:37.725Z,70.43
2022-12-25T18:16:06.615Z,70.35
2022-12-25T18:18:35.062Z,70.49
2022-12-25T18:21:02.404Z,70.60
2022-12-25T18:23:29.547Z,70.55
2022-12-25T18:25:56.676Z,70.50
2022-12-25T18:28:23.509Z,70.55
2022-12-25T18:30:50.257Z,70.71
2022-12-25T18:33:16.930Z,70.83
2022-12-25T18:35:46.685Z,70.61
2022-12-25T18:38:14.371Z,70.69
2022-12-25T18:40:46.716Z,70.37
2022-12-25T18:43:14.772Z,70.53
2022-12-25T18:45:42.270Z,70.97
2022-12-25T18:48:10.517Z,70.90
2022-12-25T18:50:39.180Z,70.82
2022-12-25T18:53:06.958Z,71.00
2022-12-25T18:55:35.598Z,71.44
2022-12-25T18:58:02.532Z,71.29
2022-12-25T19:00:29.302Z,71.08
2022-12-25T19:02:58.563Z,70.58
2022-12-25T19:05:26.053Z,71.01
2022-12-25T19:07:53.067Z,71.07
2022-12-25T19:10:19.838Z,71.12
2022-12-25T19:12:46.711Z,71.06
2022-12-25T19:15:13.969Z,71.21
2022-12-25T19:17:40.723Z,71.27
2022-12-25T19:20:08.368Z,70.95
2022-12-25T19:22:35.231Z,70.97
2022-12-25T19:25:01.965Z,70.70
2022-12-25T19:27:28.820Z,70.81
2022-12-25T19:29:55.690Z,70.63
2022-12-25T19:32:22.517Z,70.58
2022-12-25T19:34:49.240Z,70.80
2022-12-25T19:37:16.208Z,70.74
2022-12-25T19:39:46.753Z,71.07
2022-12-25T19:42:16.049Z,70.94
2022-12-25T19:44:43.424Z,71.10
2022-12-25T19:47:10.767Z,70.80
2022-12-25T19:49:37.491Z,70.99
2022-12-25T19:52:04.415Z,71.08
2022-12-25T19:54:31.468Z,70.87
2022-12-25T19:56:58.176Z,70.64
2022-12-25T19:59:24.904Z,71.14
2022-12-25T20:01:51.751Z,70.87
2022-12-25T20:04:18.745Z,70.74
2022-12-25T20:06:45.887Z,71.12
2022-12-25T20:09:21.269Z,71.17
2022-12-25T20:11:48.840Z,71.17
2022-12-25T20:14:16.690Z,71.05
2022-12-25T20:16:44.276Z,71.06
2022-12-25T20:19:14.517Z,70.91
2022-12-25T20:21:41.847Z,71.10
2022-12-25T20:24:11.024Z,70.99
2022-12-25T20:26:39.553Z,70.96
2022-12-25T20:29:06.813Z,70.80
2022-12-25T20:31:35.031Z,70.93
2022-12-25T20:34:07.538Z,71.03
2022-12-25T20:36:37.637Z,70.96
2022-12-25T20:39:09.611Z,71.41
2022-12-25T20:41:37.615Z,70.88
2022-12-25T20:44:06.470Z,70.64
2022-12-25T20:46:33.365Z,71.09
2022-12-25T20:49:02.097Z,71.18
2022-12-25T20:51:28.980Z,71.16
2022-12-25T20:53:56.765Z,71.18
2022-12-25T20:56:25.826Z,71.06
2022-12-25T20:58:58.883Z,71.33
2022-12-25T21:01:27.272Z,71.65
2022-12-25T21:03:55.037Z,71.13
2022-12-25T21:06:23.243Z,71.42
2022-12-25T21:08:50.037Z,71.40
2022-12-25T21:11:18.103Z,71.35
2022-12-25T21:13:46.228Z,71.38
2022-12-25T21:16:17.230Z,71.73
2022-12-25T21:18:44.484Z,71.36
2022-12-25T21:21:11.427Z,71.83
2022-12-25T21:23:40.142Z,71.76
2022-12-25T21:26:19.056Z,71.58
2022-12-25T21:28:50.723Z,72.05
2022-12-25T21:31:18.425Z,72.00
2022-12-25T21:33:55.270Z,71.61
2022-12-25T21:36:30.898Z,71.72
2022-12-25T21:39:08.101Z,71.70
2022-12-25T21:41:37.961Z,71.98
2022-12-25T21:44:05.375Z,71.87
2022-12-25T21:46:32.457Z,71.52
2022-12-25T21:49:00.852Z,72.03
2022-12-25T21:51:49.519Z,71.79
2022-12-25T21:54:18.086Z,71.81
2022-12-25T21:56:47.275Z,71.71
2022-12-25T21:59:20.532Z,71.74
2022-12-25T22:01:48.270Z,71.86
2022-12-25T22:04:16.913Z,71.69
2022-12-25T22:07:03.676Z,72.08
2022-12-25T22:09:30.694Z,72.21
2022-12-25T22:12:16.713Z,71.92
2022-12-25T22:14:55.420Z,71.82
2022-12-25T22:17:49.818Z,71.69
2022-12-25T22:20:19.738Z,71.79
2022-12-25T22:22:46.883Z,71.88
2022-12-25T22:25:14.432Z,71.76
2022-12-25T22:27:43.078Z,72.00
2022-12-25T22:30:16.163Z,71.68
2022-12-25T22:32:43.078Z,71.87
2022-12-25T22:35:12.355Z,71.93
2022-12-25T22:37:40.457Z,72.05
2022-12-25T22:40:08.964Z,71.73
2022-12-25T22:42:35.794Z,72.01
2022-12-25T22:45:04.337Z,72.12
2022-12-25T22:47:31.300Z,71.86
2022-12-25T22:49:58.105Z,72.24
2022-12-25T22:52:24.837Z,71.97
2022-12-25T22:54:51.522Z,71.55
2022-12-25T22:57:18.257Z,71.69
2022-12-25T22:59:46.016Z,72.10
2022-12-25T23:02:13.162Z,71.94
2022-12-25T23:04:40.005Z,71.87
2022-12-25T23:07:07.007Z,71.64
2022-12-25T23:09:34.343Z,72.04
2022-12-25T23:12:01.021Z,71.82
2022-12-25T23:14:39.964Z,72.26
2022-12-25T23:17:29.645Z,72.03
2022-12-25T23:20:17.775Z,72.40
2022-12-25T23:23:05.275Z,72.08
2022-12-25T23:25:52.927Z,72.39
2022-12-25T23:28:40.213Z,72.25
2022-12-25T23:31:07.241Z,72.27
2022-12-25T23:33:34.264Z,72.33
2022-12-25T23:36:01.210Z,72.29
2022-12-25T23:38:28.157Z,72.19
2022-12-25T23:40:55.000Z,72.17
2022-12-25T23:43:21.850Z,72.38
2022-12-25T23:45:48.606Z,72.12
2022-12-25T23:48:15.426Z,72.41
2022-12-25T23:50:42.165Z,72.58
2022-12-25T23:53:10.999Z,72.52
2022-12-25T23:55:37.905Z,72.46
2022-12-25T23:58:04.949Z,72.47
